Time;durP1;ratioP1;P1;durP2;ratioP2;P2;SDS_P1;SDS_P2;PMS_P1;PMS_P2;Temp;Humidity;BMP_temperature;BMP_pressure;BME280_temperature;BME280_humidity;BME280_pressure;Samples;Min_cycle;Max_cycle;Signal;HPM_P1;HPM_P2
2021/03/21 00:01:33;;;;;;;30.37;11.25;;;;;;;-2.67;65.80;100592.96;2114901;82;21303;-69
2021/03/21 00:04:34;;;;;;;26.12;11.03;;;;;;;-2.63;65.74;100595.79;2125007;82;21210;-70
2021/03/21 00:07:35;;;;;;;31.07;11.08;;;;;;;-2.59;65.72;100598.62;2116016;82;21187;-69
2021/03/21 00:10:37;;;;;;;31.95;11.93;;;;;;;-2.59;65.45;100593.42;2118930;82;21825;-71
2021/03/21 00:13:38;;;;;;;33.18;11.80;;;;;;;-2.56;65.52;100581.15;2111962;82;21192;-69
2021/03/21 00:16:40;;;;;;;33.13;12.10;;;;;;;-2.53;65.63;100578.41;2115162;82;21156;-70
2021/03/21 00:19:41;;;;;;;28.73;11.60;;;;;;;-2.49;65.33;100579.94;2117147;82;21119;-69
2021/03/21 00:22:43;;;;;;;30.88;11.12;;;;;;;-2.48;65.27;100569.08;2145731;81;21171;-69
2021/03/21 00:25:45;;;;;;;31.12;10.95;;;;;;;-2.45;65.29;100558.53;2121283;82;21155;-69
2021/03/21 00:28:47;;;;;;;26.25;10.28;;;;;;;-2.42;65.31;100558.41;2121926;82;21603;-69
2021/03/21 00:31:49;;;;;;;27.70;10.45;;;;;;;-2.40;65.15;100547.46;2117800;82;21127;-69
2021/03/21 00:34:50;;;;;;;29.27;10.63;;;;;;;-2.37;65.21;100536.92;2149921;81;21089;-70
2021/03/21 00:38:00;;;;;;;24.55;11.30;;;;;;;-2.37;65.10;100537.38;2130540;81;21103;-69
2021/03/21 00:41:03;;;;;;;24.18;9.80;;;;;;;-2.36;65.12;100534.72;2077012;82;21606;-69
2021/03/21 00:44:05;;;;;;;20.27;10.10;;;;;;;-2.36;65.18;100532.59;2129591;82;21562;-68
2021/03/21 00:47:08;;;;;;;25.20;9.30;;;;;;;-2.38;65.17;100523.55;2122672;82;21181;-68
2021/03/21 00:50:15;;;;;;;23.87;10.08;;;;;;;-2.38;65.12;100518.35;2125789;82;21616;-69
2021/03/21 00:53:18;;;;;;;25.75;9.90;;;;;;;-2.37;65.29;100506.19;2125039;82;21183;-69
2021/03/21 00:56:39;;;;;;;21.90;9.13;;;;;;;-2.38;65.19;100503.22;2125432;82;21122;-70
2021/03/21 00:59:41;;;;;;;26.00;10.30;;;;;;;-2.38;65.31;100497.55;2129039;81;21210;-69
2021/03/21 01:02:42;;;;;;;22.98;9.53;;;;;;;-2.37;65.39;100483.63;2130184;81;21215;-69
2021/03/21 01:05:58;;;;;;;22.65;10.38;;;;;;;-2.35;65.24;100479.20;2142549;81;21515;-69
2021/03/21 01:09:10;;;;;;;25.62;10.05;;;;;;;-2.35;65.15;100466.22;2147724;81;21182;-69
2021/03/21 01:12:13;;;;;;;24.15;9.08;;;;;;;-2.32;65.13;100461.33;2136465;81;21195;-69
2021/03/21 01:15:15;;;;;;;21.93;9.63;;;;;;;-2.32;65.13;100453.06;2145492;81;21226;-71
2021/03/21 01:18:19;;;;;;;23.50;10.65;;;;;;;-2.29;65.27;100440.37;2134023;81;21170;-69
2021/03/21 01:21:27;;;;;;;21.85;10.00;;;;;;;-2.28;65.25;100433.81;2128336;81;21107;-69
2021/03/21 01:24:28;;;;;;;21.52;9.80;;;;;;;-2.29;65.26;100425.61;2120845;82;21495;-71
2021/03/21 01:27:30;;;;;;;21.70;9.28;;;;;;;-2.27;65.27;100421.19;2122561;81;21119;-70
2021/03/21 01:30:31;;;;;;;21.75;9.48;;;;;;;-2.24;65.21;100408.96;2124095;82;21167;-70
2021/03/21 01:33:34;;;;;;;24.15;9.88;;;;;;;-2.22;65.16;100399.30;2124934;81;21191;-69
2021/03/21 01:36:39;;;;;;;22.80;9.80;;;;;;;-2.20;65.18;100400.91;2125732;82;21180;-71
2021/03/21 01:39:40;;;;;;;23.25;8.73;;;;;;;-2.18;65.20;100396.48;2127946;81;21099;-69
2021/03/21 01:42:46;;;;;;;20.00;9.43;;;;;;;-2.16;65.23;100378.21;2126188;80;21422;-69
2021/03/21 01:45:49;;;;;;;17.85;9.23;;;;;;;-2.16;65.09;100375.15;2119009;82;21174;-69
2021/03/21 01:48:54;;;;;;;18.67;8.23;;;;;;;-2.18;65.00;100373.55;2125173;81;22053;-69
2021/03/21 01:51:59;;;;;;;15.48;7.35;;;;;;;-2.19;65.22;100364.91;2125187;82;21135;-68
2021/03/21 01:55:03;;;;;;;15.60;7.70;;;;;;;-2.18;65.34;100355.34;2120421;82;21560;-69
2021/03/21 01:58:05;;;;;;;17.90;8.18;;;;;;;-2.18;65.23;100344.95;2124864;82;22436;-68
2021/03/21 02:01:17;;;;;;;19.92;9.10;;;;;;;-2.16;65.27;100337.91;2095147;81;21182;-69
2021/03/21 02:04:19;;;;;;;18.73;7.53;;;;;;;-2.14;65.33;100332.15;2070559;83;21146;-69
2021/03/21 02:07:28;;;;;;;19.45;8.35;;;;;;;-2.10;65.37;100327.19;2062846;84;21123;-69
2021/03/21 02:11:07;;;;;;;17.77;8.43;;;;;;;-2.10;65.34;100308.98;2059979;83;21132;-68
2021/03/21 02:14:23;;;;;;;15.13;7.12;;;;;;;-2.05;65.37;100309.59;2072439;84;21837;-68
2021/03/21 02:17:41;;;;;;;14.00;6.72;;;;;;;-2.02;65.35;100302.92;2066015;84;21164;-70
2021/03/21 02:21:09;;;;;;;15.80;7.00;;;;;;;-2.03;65.36;100293.42;2069108;84;21187;-69
2021/03/21 02:24:28;;;;;;;16.73;7.20;;;;;;;-2.01;65.43;100283.78;2010719;84;21156;-69
2021/03/21 02:28:07;;;;;;;14.87;7.08;;;;;;;-1.99;65.39;100275.45;2069667;84;21199;-68
2021/03/21 02:31:38;;;;;;;15.98;7.65;;;;;;;-1.99;65.48;100272.84;2074204;83;21148;-68
2021/03/21 02:35:19;;;;;;;14.95;7.05;;;;;;;-1.96;65.55;100267.47;2077524;83;21124;-68
2021/03/21 02:38:50;;;;;;;11.45;5.45;;;;;;;-1.94;65.64;100264.77;2080385;83;21556;-71
2021/03/21 02:42:00;;;;;;;15.95;7.75;;;;;;;-1.96;65.62;100247.97;2096143;83;21638;-69
2021/03/21 02:45:09;;;;;;;15.30;7.80;;;;;;;-1.91;65.71;100259.44;2083224;83;21181;-69
2021/03/21 02:48:28;;;;;;;17.37;7.58;;;;;;;-1.92;65.71;100240.36;2083856;83;21105;-69
2021/03/21 02:51:36;;;;;;;15.50;7.80;;;;;;;-1.88;65.67;100244.48;2081305;83;21137;-69
2021/03/21 02:54:46;;;;;;;17.52;7.25;;;;;;;-1.86;65.74;100237.88;2075868;83;21718;-69
2021/03/21 02:57:52;;;;;;;15.58;7.05;;;;;;;-1.86;65.90;100234.84;2091207;83;21133;-69
2021/03/21 03:01:05;;;;;;;13.88;7.17;;;;;;;-1.86;65.93;100227.05;2113250;81;21150;-69
2021/03/21 03:04:11;;;;;;;14.33;6.78;;;;;;;-1.85;65.90;100213.57;2109492;82;21212;-69
2021/03/21 03:07:19;;;;;;;14.40;7.80;;;;;;;-1.84;65.85;100209.56;2139326;80;21140;-69
2021/03/21 03:10:38;;;;;;;15.13;7.28;;;;;;;-1.83;66.04;100208.66;2157150;80;21113;-69
2021/03/21 03:13:47;;;;;;;14.80;7.50;;;;;;;-1.83;66.05;100194.36;2140984;80;21121;-69
2021/03/21 03:16:56;;;;;;;13.58;7.53;;;;;;;-1.82;66.11;100189.98;2156667;80;21531;-69
2021/03/21 03:20:29;;;;;;;17.15;8.38;;;;;;;-1.81;66.28;100183.38;2159009;80;21164;-70
2021/03/21 03:23:39;;;;;;;14.53;7.53;;;;;;;-1.79;66.21;100171.60;2156420;80;21116;-69
2021/03/21 03:27:09;;;;;;;12.47;7.00;;;;;;;-1.75;66.27;100167.89;2154235;80;21501;-68
2021/03/21 03:30:16;;;;;;;15.78;7.80;;;;;;;-1.73;66.30;100156.11;2152492;80;21101;-69
2021/03/21 03:33:19;;;;;;;16.67;7.42;;;;;;;-1.73;66.25;100153.03;2154737;80;21116;-69
2021/03/21 03:36:20;;;;;;;14.28;7.70;;;;;;;-1.70;66.19;100141.16;2163733;80;21079;-69
2021/03/21 03:39:24;;;;;;;14.95;7.33;;;;;;;-1.66;66.16;100135.30;2111469;82;21123;-68
2021/03/21 03:42:43;;;;;;;13.60;7.10;;;;;;;-1.64;66.12;100121.75;2153290;80;21136;-68
2021/03/21 03:46:14;;;;;;;17.25;8.85;;;;;;;-1.62;66.17;100124.64;2152596;80;21113;-71
2021/03/21 03:49:35;;;;;;;;;;;;;;;-1.61;66.22;100114.59;2117570;82;21171;-69
2021/03/21 03:53:00;;;;;;;13.60;7.25;;;;;;;-1.59;66.20;100106.71;2147231;80;20215;-68
2021/03/21 03:56:36;;;;;;;12.07;7.20;;;;;;;-1.57;66.19;100110.54;2150864;80;21596;-68
2021/03/21 03:59:55;;;;;;;12.15;7.33;;;;;;;-1.54;66.21;100099.95;2156160;80;21189;-69
2021/03/21 04:03:18;;;;;;;15.72;7.75;;;;;;;-1.54;66.22;100081.73;2152860;80;21152;-69
2021/03/21 04:06:36;;;;;;;12.15;7.25;;;;;;;-1.53;66.38;100077.72;2165026;81;21080;-69
2021/03/21 04:09:56;;;;;;;11.90;7.33;;;;;;;-1.52;66.27;100071.61;2137566;81;21607;-71
2021/03/21 04:13:21;;;;;;;13.45;7.78;;;;;;;-1.51;66.24;100069.38;2155277;80;21190;-68
2021/03/21 04:16:37;;;;;;;11.55;6.97;;;;;;;-1.51;66.04;100065.94;2156624;80;21230;-69
2021/03/21 04:19:44;;;;;;;12.20;7.55;;;;;;;-1.50;66.06;100060.63;2159139;80;21124;-68
2021/03/21 04:22:56;;;;;;;14.05;7.65;;;;;;;-1.48;66.12;100049.66;2152888;80;21174;-68
2021/03/21 04:26:05;;;;;;;14.75;6.60;;;;;;;-1.47;66.08;100048.72;2159884;80;21142;-68
2021/03/21 04:29:24;;;;;;;11.90;6.45;;;;;;;-1.46;66.04;100043.91;2158600;80;21726;-69
2021/03/21 04:32:31;;;;;;;16.07;7.10;;;;;;;-1.44;66.00;100041.20;2151150;80;21208;-69
2021/03/21 04:35:53;;;;;;;11.68;6.50;;;;;;;-1.43;66.02;100038.52;2155698;80;21612;-68
2021/03/21 04:39:02;;;;;;;14.15;6.80;;;;;;;-1.42;66.00;100025.87;2159109;80;21207;-71
2021/03/21 04:42:27;;;;;;;10.25;6.70;;;;;;;-1.42;66.05;100028.94;2148071;81;21215;-68
2021/03/21 04:45:49;;;;;;;11.15;6.95;;;;;;;-1.40;66.03;100027.92;2112335;81;21652;-69
2021/03/21 04:48:54;;;;;;;11.63;6.35;;;;;;;-1.40;66.01;100025.31;2153501;80;21180;-69
2021/03/21 04:52:13;;;;;;;10.50;7.03;;;;;;;-1.37;66.01;100012.59;2157893;80;21092;-69
2021/03/21 04:55:40;;;;;;;10.95;6.80;;;;;;;-1.36;66.00;100017.68;2112544;80;21152;-69
2021/03/21 04:58:49;;;;;;;11.63;6.53;;;;;;;-1.34;66.07;99993.34;2153850;80;21129;-69
2021/03/21 05:02:13;;;;;;;14.23;6.42;;;;;;;-1.32;66.07;100004.47;2157490;80;21114;-70
2021/03/21 05:05:35;;;;;;;12.00;7.25;;;;;;;-1.31;66.08;99993.16;2155756;80;21115;-69
2021/03/21 05:08:47;;;;;;;13.15;6.97;;;;;;;-1.32;66.10;99993.63;2147723;80;21226;-70
2021/03/21 05:12:03;;;;;;;15.40;6.75;;;;;;;-1.29;66.18;99988.70;2158887;80;21182;-72
2021/03/21 05:15:37;;;;;;;16.55;8.05;;;;;;;-1.28;66.17;99991.66;2156714;80;21251;-69
2021/03/21 05:18:52;;;;;;;13.72;8.60;;;;;;;-1.29;66.32;99984.32;2161494;80;21159;-68
2021/03/21 05:21:59;;;;;;;13.50;8.58;;;;;;;-1.28;66.41;99979.94;2158363;80;21081;-69
2021/03/21 05:25:20;;;;;;;13.62;8.15;;;;;;;-1.26;66.31;99979.39;2156251;80;21167;-71
2021/03/21 05:28:42;;;;;;;12.70;8.48;;;;;;;-1.25;66.29;99971.94;2160479;80;21187;-72
2021/03/21 05:31:44;;;;;;;13.62;8.63;;;;;;;-1.25;66.47;99970.17;2161409;80;21616;-71
2021/03/21 05:34:48;;;;;;;12.10;7.67;;;;;;;-1.23;66.47;99963.11;2161761;80;21729;-68
2021/03/21 05:38:17;;;;;;;14.53;8.25;;;;;;;-1.20;66.59;99962.91;2156681;80;21177;-69
2021/03/21 05:41:48;;;;;;;14.80;9.13;;;;;;;-1.18;66.58;99951.95;2152039;80;21171;-69
2021/03/21 05:45:37;;;;;;;13.45;8.75;;;;;;;-1.16;66.61;99951.36;2160187;80;21069;-68
2021/03/21 05:49:13;;;;;;;15.13;9.03;;;;;;;-1.14;66.77;99949.50;2159382;80;22077;-69
2021/03/21 05:52:34;;;;;;;14.47;8.10;;;;;;;-1.14;67.34;99944.77;2158267;80;21179;-69
2021/03/21 05:56:00;;;;;;;16.15;9.13;;;;;;;-1.15;67.31;99949.15;2157482;80;21172;-69
2021/03/21 05:59:38;;;;;;;13.98;8.75;;;;;;;-1.14;67.55;99948.20;2160710;80;21064;-69
2021/03/21 06:03:07;;;;;;;14.20;9.05;;;;;;;-1.12;67.74;99935.10;2158562;80;21533;-68
2021/03/21 06:06:35;;;;;;;19.05;9.10;;;;;;;-1.09;67.94;99939.28;2159284;80;21227;-68
2021/03/21 06:10:22;;;;;;;16.62;9.00;;;;;;;-1.06;68.00;99939.09;2153671;80;21198;-67
2021/03/21 06:13:50;;;;;;;13.83;8.93;;;;;;;-1.04;67.99;99925.04;2158469;80;21507;-68
2021/03/21 06:17:24;;;;;;;16.62;9.43;;;;;;;-0.99;68.07;99922.13;2158225;80;21156;-68
2021/03/21 06:20:58;;;;;;;14.98;8.80;;;;;;;-0.95;68.11;99917.94;2158871;80;21537;-70
2021/03/21 06:24:35;;;;;;;14.15;9.48;;;;;;;-0.91;68.31;99910.75;2156069;80;21177;-66
2021/03/21 06:28:17;;;;;;;18.37;9.08;;;;;;;-0.89;68.59;99911.97;2158122;80;21232;-68
2021/03/21 06:31:39;;;;;;;18.52;10.03;;;;;;;-0.88;68.52;99905.34;2162659;80;21140;-66
2021/03/21 06:35:05;;;;;;;19.05;10.93;;;;;;;-0.85;68.67;99889.51;2162871;80;21100;-65
2021/03/21 06:38:44;;;;;;;15.85;10.93;;;;;;;-0.84;68.73;99881.25;2159340;80;21607;-69
2021/03/21 06:42:11;;;;;;;20.95;10.45;;;;;;;-0.81;68.84;99886.26;2160650;80;21444;-69
2021/03/21 06:46:04;;;;;;;22.35;11.33;;;;;;;-0.79;68.89;99888.27;2152183;80;21552;-68
2021/03/21 06:49:20;;;;;;;26.95;15.38;;;;;;;-0.77;69.06;99881.20;2162109;80;21166;-67
2021/03/21 06:52:47;;;;;;;20.92;11.00;;;;;;;-0.75;68.99;99870.22;2160339;80;21145;-68
2021/03/21 06:56:06;;;;;;;16.60;10.50;;;;;;;-0.71;69.18;99872.50;2155742;80;21101;-70
2021/03/21 06:59:52;;;;;;;19.25;11.45;;;;;;;-0.69;69.45;99871.11;2158884;80;21101;-70
2021/03/21 07:03:40;;;;;;;16.35;9.95;;;;;;;-0.67;69.74;99864.04;2161855;80;21200;-70
2021/03/21 07:07:35;;;;;;;18.48;10.23;;;;;;;-0.64;69.38;99865.61;2131720;81;21604;-68
2021/03/21 07:10:44;;;;;;;32.60;10.95;;;;;;;-0.62;69.54;99852.84;2160724;80;21148;-68
2021/03/21 07:14:26;;;;;;;19.20;11.33;;;;;;;-0.57;69.48;99854.66;2126840;80;21223;-70
2021/03/21 07:17:51;;;;;;;14.98;10.05;;;;;;;-0.54;69.92;99839.28;2158842;80;22211;-69
2021/03/21 07:21:34;;;;;;;23.60;13.58;;;;;;;-0.52;70.17;99839.55;2159865;80;21184;-67
2021/03/21 07:25:05;;;;;;;17.70;10.25;;;;;;;-0.50;70.36;99845.98;2161625;80;21913;-70
2021/03/21 07:28:41;;;;;;;21.93;12.05;;;;;;;-0.50;70.87;99832.47;2162102;80;21183;-69
2021/03/21 07:32:18;;;;;;;19.07;11.25;;;;;;;-0.51;71.14;99824.73;2159357;80;21148;-67
2021/03/21 07:35:54;;;;;;;18.15;11.25;;;;;;;-0.49;71.26;99817.19;2164077;80;21110;-72
2021/03/21 07:39:24;;;;;;;16.45;10.25;;;;;;;-0.50;71.95;99815.53;2160761;80;21160;-68
2021/03/21 07:42:34;;;;;;;24.63;12.90;;;;;;;-0.48;71.92;99808.89;2160446;80;21109;-68
2021/03/21 07:46:13;;;;;;;18.77;11.33;;;;;;;-0.42;72.12;99804.59;2167332;80;22474;-67
2021/03/21 07:49:43;;;;;;;23.75;11.78;;;;;;;-0.31;72.06;99798.61;2161657;80;21643;-72
2021/03/21 07:53:08;;;;;;;15.78;9.80;;;;;;;-0.19;71.72;99801.70;2164848;80;21095;-68
2021/03/21 07:56:39;;;;;;;14.55;9.68;;;;;;;-0.09;71.39;99793.59;2164797;80;21148;-69
2021/03/21 07:59:42;;;;;;;14.20;9.23;;;;;;;0.00;71.12;99784.31;2161405;80;21144;-72
2021/03/21 08:02:43;;;;;;;21.02;11.60;;;;;;;0.09;70.52;99781.53;2148657;80;21349;-69
2021/03/21 08:05:45;;;;;;;14.55;9.83;;;;;;;0.12;70.48;99783.92;2150013;81;21151;-69
2021/03/21 08:08:52;;;;;;;17.60;10.25;;;;;;;0.14;70.58;99765.05;2160820;80;21107;-69
2021/03/21 08:12:23;;;;;;;15.03;10.08;;;;;;;0.15;70.59;99766.73;2165632;80;21147;-68
2021/03/21 08:15:30;;;;;;;16.90;9.78;;;;;;;0.26;70.50;99758.16;2158589;80;21135;-70
2021/03/21 08:18:36;;;;;;;18.90;11.03;;;;;;;0.36;70.20;99763.88;2133385;80;21559;-69
2021/03/21 08:21:37;;;;;;;23.10;11.68;;;;;;;0.49;70.17;99765.15;2117574;82;21164;-69
2021/03/21 08:24:42;;;;;;;18.27;10.93;;;;;;;0.61;69.92;99754.28;2118893;82;21151;-69
2021/03/21 08:27:44;;;;;;;15.80;9.70;;;;;;;0.66;69.45;99745.64;2172107;80;21108;-69
2021/03/21 08:30:56;;;;;;;18.70;10.32;;;;;;;0.65;69.20;99744.81;2126476;80;21128;-70
2021/03/21 08:34:37;;;;;;;21.80;12.58;;;;;;;0.66;69.32;99748.26;2160736;80;21579;-73
2021/03/21 08:37:52;;;;;;;19.48;10.65;;;;;;;0.68;69.48;99743.77;2159700;81;21792;-71
2021/03/21 08:40:58;;;;;;;20.10;11.43;;;;;;;0.78;69.50;99746.03;2157499;80;21093;-69
2021/03/21 08:44:04;;;;;;;18.62;11.40;;;;;;;0.84;69.76;99739.05;2155103;80;21195;-70
2021/03/21 08:47:16;;;;;;;17.23;11.05;;;;;;;0.81;69.91;99734.53;2160439;81;21456;-69
2021/03/21 08:50:35;;;;;;;21.23;11.78;;;;;;;0.72;71.08;99730.00;2158395;81;21571;-71
2021/03/21 08:53:42;;;;;;;21.77;12.20;;;;;;;0.60;71.43;99735.18;2109432;81;21152;-71
2021/03/21 08:57:07;;;;;;;18.20;11.05;;;;;;;0.54;72.02;99734.80;2162609;80;21084;-73
2021/03/21 09:00:22;;;;;;;19.42;11.93;;;;;;;0.59;73.08;99734.83;2156852;81;21159;-69
2021/03/21 09:03:31;;;;;;;20.45;11.90;;;;;;;0.70;72.25;99730.58;2137851;81;21093;-69
2021/03/21 09:06:40;;;;;;;17.67;11.48;;;;;;;0.77;72.51;99720.88;2082979;83;21575;-73
2021/03/21 09:09:41;;;;;;;15.80;10.43;;;;;;;0.83;72.43;99713.88;2113418;81;21602;-70
2021/03/21 09:12:51;;;;;;;23.62;12.25;;;;;;;0.87;72.51;99707.50;2107078;81;21183;-73
2021/03/21 09:16:09;;;;;;;17.35;10.82;;;;;;;0.83;72.32;99708.66;2098544;83;21132;-70
2021/03/21 09:19:18;;;;;;;14.38;10.53;;;;;;;0.84;72.63;99704.27;2122037;82;21130;-69
2021/03/21 09:22:35;;;;;;;17.52;10.82;;;;;;;0.87;72.52;99702.72;2079316;84;21205;-69
2021/03/21 09:25:39;;;;;;;16.90;10.23;;;;;;;0.92;72.62;99700.61;2112483;82;21685;-72
2021/03/21 09:28:51;;;;;;;14.60;9.55;;;;;;;1.03;72.51;99695.88;2091027;82;21188;-68
2021/03/21 09:32:04;;;;;;;17.52;10.90;;;;;;;1.15;72.64;99692.33;2054149;82;21696;-69
2021/03/21 09:35:30;;;;;;;15.98;10.48;;;;;;;1.29;72.37;99693.89;2109264;82;21140;-68
2021/03/21 09:38:36;;;;;;;14.95;10.50;;;;;;;1.40;72.22;99683.44;2109561;82;21557;-69
2021/03/21 09:41:38;;;;;;;16.17;10.48;;;;;;;1.41;72.47;99683.81;2114571;82;21941;-72
2021/03/21 09:44:43;;;;;;;14.60;11.05;;;;;;;1.41;73.00;99686.88;2115209;82;21211;-71
2021/03/21 09:48:01;;;;;;;16.32;10.98;;;;;;;1.39;73.45;99694.03;2077603;83;21129;-74
2021/03/21 09:51:16;;;;;;;19.23;13.00;;;;;;;1.31;73.57;99688.91;2077992;82;21155;-68
2021/03/21 09:54:34;;;;;;;25.77;14.85;;;;;;;1.31;73.86;99685.47;2042383;84;21210;-69
2021/03/21 09:58:16;;;;;;;16.80;11.48;;;;;;;1.29;74.62;99685.56;2090382;83;21175;-71
2021/03/21 10:01:31;;;;;;;18.95;11.80;;;;;;;1.24;74.57;99685.11;2091813;82;21207;-73
2021/03/21 10:05:12;;;;;;;18.05;10.10;;;;;;;1.20;75.15;99680.23;2115864;82;21259;-69
2021/03/21 10:08:42;;;;;;;17.67;10.65;;;;;;;1.16;75.42;99674.89;2116394;82;21172;-69
2021/03/21 10:11:53;;;;;;;21.87;13.68;;;;;;;1.13;76.08;99668.12;2157278;80;21180;-69
2021/03/21 10:15:12;;;;;;;23.00;15.88;;;;;;;1.09;76.13;99665.36;2146304;80;21505;-70
2021/03/21 10:18:36;;;;;;;22.60;15.75;;;;;;;1.08;76.34;99666.33;2153694;80;21587;-73
2021/03/21 10:21:46;;;;;;;27.50;16.80;;;;;;;1.05;77.02;99665.25;2122325;81;21640;-69
2021/03/21 10:25:01;;;;;;;25.23;15.73;;;;;;;1.01;77.06;99667.73;2173561;80;21172;-73
2021/03/21 10:28:30;;;;;;;25.52;16.57;;;;;;;1.01;77.70;99663.81;2142192;80;21105;-68
2021/03/21 10:31:35;;;;;;;25.15;17.20;;;;;;;0.99;77.84;99667.03;2105336;82;21105;-68
2021/03/21 10:34:39;;;;;;;35.70;24.70;;;;;;;0.94;77.77;99663.94;2109606;82;21087;-68
2021/03/21 10:37:49;;;;;;;44.65;29.65;;;;;;;0.92;77.77;99657.98;2162508;80;22252;-68
2021/03/21 10:40:50;;;;;;;42.88;27.55;;;;;;;0.92;78.07;99656.20;2169876;80;21100;-69
2021/03/21 10:44:00;;;;;;;34.67;23.30;;;;;;;0.96;78.02;99653.72;2147500;80;21565;-71
2021/03/21 10:47:25;;;;;;;31.83;21.27;;;;;;;1.02;78.61;99648.51;2143021;80;21600;-67
2021/03/21 10:50:35;;;;;;;25.43;17.37;;;;;;;1.01;79.10;99640.30;2155499;80;21092;-74
2021/03/21 10:53:52;;;;;;;23.00;16.65;;;;;;;1.02;79.11;99637.58;2162877;80;21105;-68
2021/03/21 10:57:37;;;;;;;23.27;14.98;;;;;;;1.07;78.97;99630.67;2155143;80;21380;-67
2021/03/21 11:00:38;;;;;;;25.02;16.10;;;;;;;1.16;79.01;99633.08;2153678;80;21176;-67
2021/03/21 11:03:40;;;;;;;24.10;16.30;;;;;;;1.18;79.18;99633.29;2139527;80;21174;-66
2021/03/21 11:06:52;;;;;;;24.18;16.97;;;;;;;1.21;79.14;99628.30;2121778;82;21105;-64
2021/03/21 11:10:02;;;;;;;27.10;18.55;;;;;;;1.28;79.30;99634.25;2047238;84;21113;-69
2021/03/21 11:13:04;;;;;;;33.18;22.13;;;;;;;1.33;79.30;99619.53;2072164;84;21164;-65
2021/03/21 11:16:22;;;;;;;37.85;26.52;;;;;;;1.39;79.64;99620.83;2081388;83;21236;-66
2021/03/21 11:19:29;;;;;;;40.03;25.65;;;;;;;1.46;79.51;99619.37;2077702;82;21584;-68
2021/03/21 11:22:42;;;;;;;34.30;22.95;;;;;;;1.48;79.62;99610.47;2079762;84;21217;-66
2021/03/21 11:25:43;;;;;;;37.35;22.85;;;;;;;1.54;80.08;99602.61;2086172;83;21152;-66
2021/03/21 11:28:45;;;;;;;31.55;20.60;;;;;;;1.60;79.99;99607.34;2085912;84;21235;-67
2021/03/21 11:31:49;;;;;;;30.92;19.82;;;;;;;1.73;80.07;99594.14;2079500;84;22755;-65
2021/03/21 11:35:04;;;;;;;27.17;18.92;;;;;;;1.83;80.32;99593.77;2063349;83;21145;-67
2021/03/21 11:38:26;;;;;;;27.17;19.50;;;;;;;1.92;80.09;99598.25;2062941;84;22502;-67
2021/03/21 11:41:39;;;;;;;29.92;20.35;;;;;;;1.92;80.38;99596.94;2108248;82;21709;-68
2021/03/21 11:44:40;;;;;;;28.90;20.15;;;;;;;1.95;80.78;99580.98;2119182;82;21142;-67
2021/03/21 11:47:46;;;;;;;24.05;16.25;;;;;;;1.97;80.54;99576.92;2133038;82;21080;-66
2021/03/21 11:50:50;;;;;;;24.65;16.05;;;;;;;2.00;80.38;99580.63;2067993;84;21165;-67
2021/03/21 11:53:53;;;;;;;18.20;13.05;;;;;;;2.04;80.64;99578.09;2122363;82;21643;-68
2021/03/21 11:57:30;;;;;;;18.90;13.55;;;;;;;2.11;80.64;99579.72;2119454;82;21179;-66
2021/03/21 12:00:36;;;;;;;18.25;12.55;;;;;;;2.15;80.76;99575.43;2132621;82;21160;-67
2021/03/21 12:03:55;;;;;;;19.82;12.50;;;;;;;2.31;80.73;99575.01;2129490;82;21156;-67
2021/03/21 12:06:58;;;;;;;18.02;12.23;;;;;;;2.33;80.62;99573.55;2129735;82;21136;-67
2021/03/21 12:10:03;;;;;;;18.80;12.73;;;;;;;2.30;80.27;99568.58;2153296;79;21510;-66
2021/03/21 12:13:32;;;;;;;19.50;12.03;;;;;;;2.33;80.63;99565.22;2163176;80;21179;-67
2021/03/21 12:16:44;;;;;;;19.32;12.13;;;;;;;2.29;80.49;99564.31;2163312;80;21124;-68
2021/03/21 12:19:46;;;;;;;20.08;12.85;;;;;;;2.18;80.40;99562.09;2154742;80;21178;-68
2021/03/21 12:22:51;;;;;;;21.15;13.62;;;;;;;2.15;80.77;99553.66;2110044;81;21149;-75
2021/03/21 12:26:16;;;;;;;19.87;12.50;;;;;;;2.11;80.72;99550.48;2166297;81;21521;-68
2021/03/21 12:29:29;;;;;;;20.72;12.28;;;;;;;2.10;80.91;99551.41;2144802;81;21114;-67
2021/03/21 12:32:36;;;;;;;17.12;12.40;;;;;;;2.08;80.99;99552.02;2161830;81;21959;-72
2021/03/21 12:35:41;;;;;;;17.12;12.35;;;;;;;2.06;80.74;99548.72;2160459;80;21174;-69
2021/03/21 12:38:49;;;;;;;19.27;12.58;;;;;;;2.11;81.17;99539.16;2164250;81;21853;-66
2021/03/21 12:41:50;;;;;;;17.10;11.88;;;;;;;2.14;80.99;99540.20;2161545;80;21172;-73
2021/03/21 12:45:22;;;;;;;19.60;13.70;;;;;;;2.20;81.08;99538.42;2167279;81;21749;-72
2021/03/21 12:48:23;;;;;;;19.30;12.18;;;;;;;2.23;81.09;99532.92;2166586;81;21741;-68
2021/03/21 12:51:32;;;;;;;19.15;12.30;;;;;;;2.20;81.29;99531.39;2165245;80;21160;-68
2021/03/21 12:54:35;;;;;;;16.62;11.55;;;;;;;2.21;81.17;99527.80;2175623;80;21678;-69
2021/03/21 12:57:36;;;;;;;15.18;11.53;;;;;;;2.26;81.02;99523.50;2156345;81;21590;-69
2021/03/21 13:00:38;;;;;;;20.75;13.00;;;;;;;2.23;81.24;99523.28;2167037;80;21513;-67
2021/03/21 13:03:40;;;;;;;20.45;13.25;;;;;;;2.19;81.50;99521.86;2164722;80;21182;-73
2021/03/21 13:06:41;;;;;;;17.75;12.30;;;;;;;2.20;81.40;99520.09;2159322;80;21176;-67
2021/03/21 13:09:43;;;;;;;18.37;11.73;;;;;;;2.15;81.45;99521.77;2143853;81;21189;-68
2021/03/21 13:12:45;;;;;;;20.08;11.95;;;;;;;2.21;81.72;99523.88;2146496;80;21170;-70
2021/03/21 13:15:47;;;;;;;18.27;11.93;;;;;;;2.26;81.87;99519.58;2159970;80;21548;-76
2021/03/21 13:18:49;;;;;;;17.15;10.55;;;;;;;2.30;82.11;99516.22;2161563;80;21178;-69
2021/03/21 13:21:50;;;;;;;18.35;12.07;;;;;;;2.32;81.90;99509.07;2153703;80;21088;-68
2021/03/21 13:24:52;;;;;;;18.67;11.57;;;;;;;2.39;82.08;99514.13;2167902;80;21108;-66
2021/03/21 13:27:57;;;;;;;15.60;11.83;;;;;;;2.51;82.32;99513.59;2157085;80;21096;-69
2021/03/21 13:31:00;;;;;;;19.35;11.38;;;;;;;2.61;81.96;99510.04;2162110;80;21103;-70
2021/03/21 13:34:02;;;;;;;20.30;13.25;;;;;;;2.60;81.91;99514.94;2126842;82;21207;-69
2021/03/21 13:37:04;;;;;;;18.57;12.15;;;;;;;2.62;82.15;99509.10;2162160;80;21538;-66
2021/03/21 13:40:10;;;;;;;17.42;12.10;;;;;;;2.66;82.03;99513.10;2128122;81;21116;-68
2021/03/21 13:43:13;;;;;;;14.58;10.10;;;;;;;2.61;81.78;99508.73;2131323;81;21101;-67
2021/03/21 13:46:15;;;;;;;16.82;10.98;;;;;;;2.60;81.79;99500.53;2144881;80;21130;-66
2021/03/21 13:49:18;;;;;;;13.98;9.78;;;;;;;2.65;82.21;99499.67;2158096;80;21532;-69
2021/03/21 13:52:20;;;;;;;15.15;11.38;;;;;;;2.66;81.73;99501.31;2159379;80;21479;-68
2021/03/21 13:55:36;;;;;;;16.10;10.98;;;;;;;2.54;81.80;99506.30;2159971;80;21062;-67
2021/03/21 13:58:37;;;;;;;16.80;11.20;;;;;;;2.50;81.75;99502.75;2164039;80;21597;-76
2021/03/21 14:01:39;;;;;;;18.67;11.48;;;;;;;2.46;81.75;99490.41;2155532;80;21166;-71
2021/03/21 14:04:40;;;;;;;18.62;12.37;;;;;;;2.45;81.57;99492.69;2141892;80;21163;-72
2021/03/21 14:07:41;;;;;;;23.22;13.35;;;;;;;2.40;81.56;99486.52;2122512;82;21191;-70
2021/03/21 14:10:43;;;;;;;21.70;13.62;;;;;;;2.37;81.89;99485.95;2129404;82;21111;-70
2021/03/21 14:13:45;;;;;;;22.20;14.13;;;;;;;2.33;81.86;99481.92;2133849;81;21672;-69
2021/03/21 14:16:46;;;;;;;20.85;13.55;;;;;;;2.30;81.84;99480.39;2120875;82;21215;-72
2021/03/21 14:19:48;;;;;;;20.48;13.22;;;;;;;2.33;81.82;99485.84;2120964;82;21108;-69
2021/03/21 14:22:50;;;;;;;23.47;14.63;;;;;;;2.35;81.89;99487.86;2120743;82;21119;-70
2021/03/21 14:25:52;;;;;;;29.77;16.93;;;;;;;2.35;81.88;99486.06;2126498;82;21592;-68
2021/03/21 14:28:53;;;;;;;25.52;15.78;;;;;;;2.38;82.02;99484.50;2113013;82;21103;-68
2021/03/21 14:31:55;;;;;;;22.75;15.95;;;;;;;2.40;81.94;99481.28;2116453;82;21300;-70
2021/03/21 14:34:58;;;;;;;22.75;16.23;;;;;;;2.40;82.45;99481.77;2123555;82;21564;-68
2021/03/21 14:37:59;;;;;;;26.70;16.87;;;;;;;2.45;82.12;99475.66;2122651;82;21515;-69
2021/03/21 14:41:03;;;;;;;27.50;16.90;;;;;;;2.50;82.45;99476.08;2120771;83;21191;-68
2021/03/21 14:44:05;;;;;;;23.27;15.70;;;;;;;2.52;82.36;99474.16;2123473;82;21116;-68
2021/03/21 14:47:07;;;;;;;21.97;16.32;;;;;;;2.51;82.28;99473.83;2121148;82;21147;-68
2021/03/21 14:50:12;;;;;;;27.48;16.97;;;;;;;2.54;82.31;99474.87;2115774;82;21148;-69
2021/03/21 14:53:15;;;;;;;26.52;16.55;;;;;;;2.60;82.30;99470.41;2124121;82;21163;-70
2021/03/21 14:56:18;;;;;;;29.48;19.12;;;;;;;2.60;82.42;99466.48;2128919;82;21191;-69